Time;durP1;ratioP1;P1;durP2;ratioP2;P2;SDS_P1;SDS_P2;PMS_P1;PMS_P2;Temp;Humidity;BMP_temperature;BMP_pressure;BME280_temperature;BME280_humidity;BME280_pressure;Samples;Min_cycle;Max_cycle;Signal;HPM_P1;HPM_P2
2023/08/03 00:02:03;;;;;;;4.17;1.50;;;17.40;1.00;;;;;;5018713;28;20791;-79
2023/08/03 00:04:28;;;;;;;3.43;1.40;;;17.30;1.00;;;;;;5018472;28;20220;-79
2023/08/03 00:06:54;;;;;;;6.43;1.60;;;17.40;1.00;;;;;;5036501;28;20194;-80
2023/08/03 00:09:20;;;;;;;6.47;1.50;;;17.30;1.00;;;;;;5036267;28;20187;-79
2023/08/03 00:11:45;;;;;;;7.17;1.70;;;17.30;1.00;;;;;;5019465;28;20162;-79
2023/08/03 00:14:11;;;;;;;6.77;1.50;;;17.30;1.00;;;;;;5018421;28;20166;-79
2023/08/03 00:16:36;;;;;;;4.53;1.50;;;17.30;1.00;;;;;;5018812;28;20190;-79
2023/08/03 00:19:02;;;;;;;4.87;1.47;;;17.30;1.00;;;;;;5036471;28;20166;-80
2023/08/03 00:21:27;;;;;;;3.97;1.70;;;17.20;1.00;;;;;;5019077;28;20174;-79
2023/08/03 00:23:53;;;;;;;4.10;1.47;;;17.20;1.00;;;;;;5018353;28;20213;-80
2023/08/03 00:26:18;;;;;;;6.50;1.53;;;17.30;1.00;;;;;;5018307;28;20174;-81
2023/08/03 00:28:44;;;;;;;4.30;1.40;;;17.30;1.00;;;;;;5036347;28;20178;-79
2023/08/03 00:31:10;;;;;;;3.87;1.50;;;17.40;1.00;;;;;;5019153;28;20633;-80
2023/08/03 00:33:35;;;;;;;5.97;1.60;;;17.30;1.00;;;;;;5018493;28;20189;-79
2023/08/03 00:36:01;;;;;;;3.87;1.50;;;17.40;1.00;;;;;;5036365;28;20189;-79
2023/08/03 00:38:26;;;;;;;5.43;1.60;;;17.30;1.00;;;;;;5018933;28;20214;-79
2023/08/03 00:40:52;;;;;;;6.23;1.60;;;17.30;1.00;;;;;;5019382;28;20741;-79
2023/08/03 00:43:18;;;;;;;6.27;1.40;;;17.40;1.00;;;;;;5019459;28;20206;-79
2023/08/03 00:45:44;;;;;;;5.53;1.50;;;17.30;1.00;;;;;;5019136;28;20205;-79
2023/08/03 00:48:09;;;;;;;3.70;1.60;;;17.30;1.00;;;;;;5019362;28;20191;-78
2023/08/03 00:50:36;;;;;;;3.57;1.47;;;17.30;1.00;;;;;;5036111;28;20174;-79
2023/08/03 00:53:02;;;;;;;4.57;1.50;;;17.30;1.00;;;;;;5019384;28;20183;-80
2023/08/03 00:55:27;;;;;;;5.30;1.57;;;17.40;1.00;;;;;;5019312;28;20175;-79
2023/08/03 00:57:53;;;;;;;4.87;1.80;;;17.40;1.00;;;;;;5018952;28;20202;-79
2023/08/03 01:00:18;;;;;;;6.70;1.50;;;17.40;1.00;;;;;;5036583;28;20178;-79
2023/08/03 01:02:44;;;;;;;6.87;1.70;;;17.40;1.00;;;;;;5019013;28;20209;-81
2023/08/03 01:05:10;;;;;;;5.00;1.47;;;17.30;35.70;;;;;;5021256;28;20210;-79
2023/08/03 01:07:35;;;;;;;5.80;1.60;;;17.30;24.60;;;;;;5039886;28;20194;-79
2023/08/03 01:10:01;;;;;;;5.90;1.67;;;17.30;1.00;;;;;;5023198;28;20185;-79
2023/08/03 01:12:27;;;;;;;7.53;1.60;;;17.30;4.80;;;;;;5040280;28;20174;-79
2023/08/03 01:14:53;;;;;;;3.07;1.30;;;17.30;99.90;;;;;;5040464;28;20181;-80
2023/08/03 01:17:20;;;;;;;5.33;1.70;;;17.20;99.90;;;;;;5021961;28;20205;-81
2023/08/03 01:19:45;;;;;;;5.17;1.43;;;17.10;99.90;;;;;;5040778;28;20189;-79
2023/08/03 01:22:13;;;;;;;4.40;1.40;;;17.20;90.50;;;;;;5022234;28;20273;-81
2023/08/03 01:24:39;;;;;;;3.03;1.50;;;17.10;61.90;;;;;;5022641;28;20178;-79
2023/08/03 01:27:05;;;;;;;5.50;1.43;;;17.10;70.40;;;;;;5022094;28;20257;-79
2023/08/03 01:29:31;;;;;;;5.30;1.83;;;17.10;8.80;;;;;;5021691;28;20184;-79
2023/08/03 01:31:58;;;;;;;3.73;1.33;;;17.20;1.00;;;;;;5039805;28;20229;-79
2023/08/03 01:34:27;;;;;;;3.40;1.20;;;17.20;1.00;;;;;;5039743;28;20185;-79
2023/08/03 01:36:54;;;;;;;6.20;1.73;;;17.30;1.00;;;;;;5039816;28;20206;-79
2023/08/03 01:39:22;;;;;;;3.47;1.30;;;17.40;1.00;;;;;;5021829;28;20657;-80
2023/08/03 01:41:48;;;;;;;7.53;1.77;;;17.40;1.00;;;;;;5038770;28;20170;-79
2023/08/03 01:44:27;;;;;;;3.37;1.23;;;17.40;1.00;;;;;;5039549;28;20185;-80
2023/08/03 01:46:54;;;;;;;4.53;1.23;;;17.40;1.00;;;;;;5039815;28;20194;-80
2023/08/03 01:49:21;;;;;;;4.53;1.30;;;17.40;1.00;;;;;;5020882;28;20170;-80
2023/08/03 01:51:46;;;;;;;3.03;1.20;;;17.40;1.00;;;;;;5038850;28;20296;-80
2023/08/03 01:54:13;;;;;;;4.87;1.50;;;17.30;1.00;;;;;;5020962;28;20214;-80
2023/08/03 01:56:38;;;;;;;3.50;1.30;;;17.30;1.00;;;;;;5038139;28;20194;-81
2023/08/03 01:59:04;;;;;;;4.07;1.30;;;17.20;1.00;;;;;;5021161;28;20188;-80
2023/08/03 02:01:30;;;;;;;3.43;1.30;;;17.20;1.00;;;;;;5020278;28;20196;-79
2023/08/03 02:03:56;;;;;;;4.07;1.40;;;17.20;11.30;;;;;;5020986;28;20214;-79
2023/08/03 02:06:21;;;;;;;4.13;1.10;;;17.10;9.80;;;;;;5021722;28;20269;-79
2023/08/03 02:08:47;;;;;;;3.37;1.13;;;17.10;35.90;;;;;;5039548;28;20185;-79
2023/08/03 02:11:12;;;;;;;4.57;1.50;;;17.00;99.90;;;;;;5021884;28;20174;-79
2023/08/03 02:13:38;;;;;;;4.00;1.10;;;16.90;99.90;;;;;;5039397;28;20659;-79
2023/08/03 02:16:08;;;;;;;7.00;1.80;;;16.90;34.50;;;;;;5038973;28;20265;-79
2023/08/03 02:18:34;;;;;;;3.83;1.10;;;16.90;80.20;;;;;;5021200;28;20178;-79
2023/08/03 02:21:01;;;;;;;4.17;1.30;;;17.00;18.40;;;;;;5020793;28;20260;-79
2023/08/03 02:23:26;;;;;;;3.23;0.90;;;17.00;20.20;;;;;;5021262;28;20206;-78
2023/08/03 02:25:52;;;;;;;3.93;1.50;;;17.00;1.00;;;;;;5021440;28;20174;-79
2023/08/03 02:28:18;;;;;;;3.77;1.30;;;17.00;1.00;;;;;;5020770;28;20201;-79
2023/08/03 02:30:43;;;;;;;2.20;1.07;;;17.00;1.00;;;;;;5020857;28;20174;-79
2023/08/03 02:33:09;;;;;;;2.57;1.03;;;17.10;1.00;;;;;;5020447;28;20193;-79
2023/08/03 02:35:37;;;;;;;2.23;1.10;;;17.10;1.00;;;;;;5020970;28;20269;-79
2023/08/03 02:38:03;;;;;;;3.80;0.87;;;17.20;1.00;;;;;;5038188;28;20220;-79
2023/08/03 02:40:29;;;;;;;3.73;0.97;;;17.20;1.00;;;;;;5038404;28;20188;-79
2023/08/03 02:42:54;;;;;;;4.90;1.03;;;17.30;1.00;;;;;;5020110;28;20293;-80
2023/08/03 02:45:20;;;;;;;3.93;1.10;;;17.30;1.00;;;;;;5020152;28;20280;-81
2023/08/03 02:47:46;;;;;;;2.50;0.90;;;17.30;1.00;;;;;;5038503;28;20190;-79
2023/08/03 02:50:12;;;;;;;1.77;0.80;;;17.30;1.00;;;;;;5020793;28;20178;-79
2023/08/03 02:52:37;;;;;;;2.80;0.87;;;17.30;1.00;;;;;;5020629;28;20637;-79
2023/08/03 02:55:03;;;;;;;3.40;1.17;;;17.30;1.00;;;;;;5038692;28;20174;-80
2023/08/03 02:57:28;;;;;;;2.30;0.90;;;17.30;1.00;;;;;;5037727;28;20605;-79
2023/08/03 02:59:54;;;;;;;3.03;1.00;;;17.20;1.00;;;;;;5038684;28;20178;-79
2023/08/03 03:02:20;;;;;;;1.70;0.80;;;17.30;1.00;;;;;;5020313;28;20202;-79
2023/08/03 03:04:45;;;;;;;2.27;0.90;;;17.20;1.00;;;;;;5021153;28;20175;-80
2023/08/03 03:07:11;;;;;;;5.77;1.00;;;17.10;1.00;;;;;;5021070;28;20200;-80
2023/08/03 03:09:37;;;;;;;3.60;1.10;;;17.00;1.00;;;;;;5038109;28;20178;-78
2023/08/03 03:12:02;;;;;;;2.70;0.90;;;16.90;1.00;;;;;;5020636;28;20178;-79
2023/08/03 03:14:28;;;;;;;2.10;0.83;;;16.90;15.10;;;;;;5021485;28;20654;-80
2023/08/03 03:16:53;;;;;;;2.70;0.97;;;16.80;89.50;;;;;;5037688;28;20198;-79
2023/08/03 03:19:19;;;;;;;2.80;1.00;;;16.80;71.60;;;;;;5037760;28;20182;-79
2023/08/03 03:21:45;;;;;;;2.60;1.00;;;16.80;98.50;;;;;;5020128;28;20167;-80
2023/08/03 03:24:10;;;;;;;2.70;0.90;;;16.80;99.90;;;;;;5037903;28;20193;-80
2023/08/03 03:26:36;;;;;;;2.63;0.70;;;16.70;99.90;;;;;;5019402;28;20191;-79
2023/08/03 03:29:01;;;;;;;1.50;0.93;;;16.70;99.90;;;;;;5021088;28;20174;-79
2023/08/03 03:31:27;;;;;;;3.87;0.80;;;16.60;99.90;;;;;;5020088;28;20228;-80
2023/08/03 03:33:52;;;;;;;2.00;0.90;;;16.50;99.90;;;;;;5036880;28;20221;-79
2023/08/03 03:36:18;;;;;;;2.33;0.80;;;16.50;99.90;;;;;;5038139;28;20170;-79
2023/08/03 03:38:43;;;;;;;3.30;1.20;;;16.40;99.90;;;;;;5020337;28;20182;-80
2023/08/03 03:41:09;;;;;;;2.90;1.30;;;16.30;99.90;;;;;;5019808;28;20208;-79
2023/08/03 03:43:35;;;;;;;4.60;1.13;;;16.30;99.90;;;;;;5037240;28;20205;-80
2023/08/03 03:46:02;;;;;;;3.23;1.30;;;16.20;99.90;;;;;;5037733;28;20186;-79
2023/08/03 03:48:28;;;;;;;1.93;1.10;;;16.10;99.90;;;;;;5037400;28;20194;-80
2023/08/03 03:50:53;;;;;;;2.23;1.10;;;16.10;99.90;;;;;;5038074;28;20219;-80
2023/08/03 03:53:19;;;;;;;3.77;1.00;;;16.10;99.90;;;;;;5038007;28;20178;-81
2023/08/03 03:55:45;;;;;;;2.17;1.00;;;16.10;99.90;;;;;;5037973;28;20175;-79
2023/08/03 03:58:10;;;;;;;3.57;1.00;;;16.10;99.90;;;;;;5038013;28;20201;-79
2023/08/03 04:00:40;;;;;;;1.43;1.00;;;16.00;99.90;;;;;;5037783;28;20177;-79
2023/08/03 04:03:09;;;;;;;1.80;1.00;;;16.00;99.90;;;;;;5018947;28;20259;-81
2023/08/03 04:05:35;;;;;;;2.83;1.00;;;16.00;99.90;;;;;;5018915;28;20170;-80
2023/08/03 04:08:02;;;;;;;1.60;1.00;;;16.00;99.90;;;;;;5018334;28;20273;-79
2023/08/03 04:10:28;;;;;;;2.70;0.90;;;16.00;99.90;;;;;;5037133;28;20196;-79
2023/08/03 04:12:54;;;;;;;2.50;0.83;;;16.00;99.90;;;;;;5037143;28;20197;-79
2023/08/03 04:15:19;;;;;;;2.77;0.90;;;16.00;99.90;;;;;;5019185;28;20645;-79
2023/08/03 04:17:46;;;;;;;2.23;1.00;;;16.00;99.90;;;;;;5037747;28;20206;-79
2023/08/03 04:20:12;;;;;;;1.83;1.00;;;15.90;99.90;;;;;;5037564;28;20556;-80
2023/08/03 04:22:38;;;;;;;2.37;0.90;;;15.90;99.90;;;;;;5037384;28;20226;-79
2023/08/03 04:25:04;;;;;;;3.47;1.13;;;15.90;99.90;;;;;;5020365;28;20174;-79
2023/08/03 04:27:30;;;;;;;2.03;0.90;;;15.90;99.90;;;;;;5036476;28;20197;-80
2023/08/03 04:29:55;;;;;;;1.27;0.80;;;15.90;99.90;;;;;;5037491;28;20174;-79
2023/08/03 04:32:21;;;;;;;2.10;1.00;;;15.90;99.90;;;;;;5037065;28;20213;-79
2023/08/03 04:34:46;;;;;;;3.37;1.00;;;15.90;99.90;;;;;;5019657;28;20174;-81
2023/08/03 04:37:12;;;;;;;1.73;0.90;;;15.90;99.90;;;;;;5037475;28;20303;-80
2023/08/03 04:39:37;;;;;;;3.80;1.00;;;15.80;99.90;;;;;;5041295;28;20186;-79
2023/08/03 04:42:03;;;;;;;2.13;1.03;;;15.70;99.90;;;;;;5041249;28;20176;-81
2023/08/03 04:44:29;;;;;;;3.70;1.20;;;15.70;99.90;;;;;;5023754;28;20181;-81
2023/08/03 04:46:54;;;;;;;2.40;1.10;;;15.70;99.90;;;;;;5023235;28;20217;-79
2023/08/03 04:49:22;;;;;;;3.30;1.03;;;15.60;99.90;;;;;;5023724;28;20179;-79
2023/08/03 04:51:49;;;;;;;1.67;0.90;;;15.60;99.90;;;;;;5023462;28;20174;-79
2023/08/03 04:54:15;;;;;;;3.20;1.10;;;15.60;99.90;;;;;;5041849;28;20262;-79
2023/08/03 04:56:40;;;;;;;3.93;1.30;;;15.60;99.90;;;;;;5040871;28;20682;-79
2023/08/03 04:59:06;;;;;;;2.27;1.10;;;15.50;99.90;;;;;;5023776;28;20182;-79
2023/08/03 05:01:32;;;;;;;3.67;1.33;;;15.40;99.90;;;;;;5023910;28;20606;-80
2023/08/03 05:04:00;;;;;;;2.43;1.10;;;15.40;99.90;;;;;;5023414;28;20226;-81
2023/08/03 05:06:25;;;;;;;3.40;1.50;;;15.40;99.90;;;;;;5040444;28;20198;-79
2023/08/03 05:08:51;;;;;;;3.23;1.30;;;15.40;99.90;;;;;;5022795;28;20178;-80
2023/08/03 05:11:16;;;;;;;2.77;1.07;;;15.40;99.90;;;;;;5021146;28;20322;-83
2023/08/03 05:13:42;;;;;;;2.63;1.10;;;15.40;99.90;;;;;;5021769;28;20183;-83
2023/08/03 05:16:08;;;;;;;3.63;1.20;;;15.40;99.90;;;;;;5039534;28;20332;-84
2023/08/03 05:18:33;;;;;;;2.77;1.20;;;15.40;99.90;;;;;;5038709;28;20181;-84
2023/08/03 05:20:59;;;;;;;1.77;1.20;;;15.50;99.90;;;;;;5021183;28;20175;-84
2023/08/03 05:23:25;;;;;;;3.13;1.10;;;15.50;99.90;;;;;;5021802;28;20285;-85
2023/08/03 05:25:58;;;;;;;2.47;1.03;;;15.50;99.90;;;;;;5040068;28;20238;-84
2023/08/03 05:28:24;;;;;;;3.20;1.33;;;15.60;99.90;;;;;;5021616;28;20241;-83
2023/08/03 05:30:50;;;;;;;2.70;1.00;;;15.60;99.90;;;;;;5018690;28;20171;-82
2023/08/03 05:33:16;;;;;;;3.27;1.07;;;15.60;99.90;;;;;;5036796;28;20174;-81
2023/08/03 05:35:42;;;;;;;2.17;1.23;;;15.60;99.90;;;;;;5037208;28;20170;-82
2023/08/03 05:38:08;;;;;;;3.43;1.10;;;15.70;99.90;;;;;;5019365;28;20742;-82
2023/08/03 05:40:34;;;;;;;4.00;1.00;;;15.70;99.90;;;;;;5019664;28;20170;-85
2023/08/03 05:42:59;;;;;;;3.47;1.20;;;15.70;99.90;;;;;;5020674;28;20198;-84
2023/08/03 05:45:36;;;;;;;3.27;0.93;;;15.70;99.90;;;;;;5038487;28;20170;-84
2023/08/03 05:48:03;;;;;;;1.50;1.10;;;15.70;99.90;;;;;;5036337;28;20194;-84
2023/08/03 05:50:29;;;;;;;2.43;0.83;;;15.70;99.90;;;;;;5038344;28;20237;-83
2023/08/03 05:52:56;;;;;;;2.30;1.00;;;15.80;99.90;;;;;;5020659;28;20241;-83
2023/08/03 05:55:22;;;;;;;1.53;0.90;;;15.80;99.90;;;;;;5019821;28;20178;-83
2023/08/03 05:57:47;;;;;;;1.60;0.80;;;15.80;99.90;;;;;;5036575;28;20194;-82
2023/08/03 06:00:19;;;;;;;1.77;0.90;;;15.80;99.90;;;;;;5019208;28;20211;-82
2023/08/03 06:02:46;;;;;;;2.03;0.70;;;15.80;99.90;;;;;;5036435;28;20572;-83
2023/08/03 06:05:34;;;;;;;2.70;0.90;;;15.80;99.90;;;;;;5018962;28;20194;-82
2023/08/03 06:07:59;;;;;;;2.67;0.90;;;15.80;99.90;;;;;;5018414;28;20253;-82
2023/08/03 06:10:25;;;;;;;2.13;0.90;;;15.80;99.90;;;;;;5018043;28;20163;-83
2023/08/03 06:12:50;;;;;;;1.00;0.80;;;15.80;99.90;;;;;;5035994;28;20240;-83
2023/08/03 06:15:20;;;;;;;3.40;1.00;;;15.80;99.90;;;;;;5035691;28;20170;-82
2023/08/03 06:17:46;;;;;;;2.60;1.10;;;15.80;99.90;;;;;;5035907;28;20203;-84
2023/08/03 06:20:13;;;;;;;2.40;0.93;;;15.90;99.90;;;;;;5019380;28;20186;-84
2023/08/03 06:22:39;;;;;;;2.67;0.90;;;15.80;99.90;;;;;;5037628;28;20198;-85
2023/08/03 06:25:10;;;;;;;2.80;0.90;;;15.90;99.90;;;;;;5019389;28;20170;-83
2023/08/03 06:27:39;;;;;;;2.03;1.07;;;15.90;99.90;;;;;;5019525;28;20194;-83
2023/08/03 06:30:11;;;;;;;2.83;1.13;;;15.90;99.90;;;;;;5037635;28;20260;-83
2023/08/03 06:32:37;;;;;;;2.33;0.83;;;16.00;99.90;;;;;;5018893;28;20182;-82
2023/08/03 06:35:04;;;;;;;2.67;0.90;;;16.10;99.90;;;;;;5019403;28;20273;-83
2023/08/03 06:37:29;;;;;;;1.63;0.90;;;16.10;99.90;;;;;;5036854;28;20210;-83
2023/08/03 06:39:55;;;;;;;1.77;0.77;;;16.10;99.90;;;;;;5019459;28;20189;-82
2023/08/03 06:42:20;;;;;;;2.83;1.10;;;16.10;99.90;;;;;;5036102;28;20198;-82
2023/08/03 06:44:46;;;;;;;2.80;0.93;;;16.10;99.90;;;;;;5037213;28;20176;-83
2023/08/03 06:47:12;;;;;;;1.90;0.90;;;16.00;99.90;;;;;;5037414;28;20198;-82
2023/08/03 06:49:37;;;;;;;1.43;0.80;;;16.00;99.90;;;;;;5018886;28;20178;-82
2023/08/03 06:52:04;;;;;;;1.90;0.87;;;16.00;99.90;;;;;;5037802;28;20263;-83
2023/08/03 06:54:29;;;;;;;1.37;0.70;;;16.00;99.90;;;;;;5019285;28;20186;-83
2023/08/03 06:56:55;;;;;;;2.50;1.20;;;15.90;99.90;;;;;;5036917;28;20201;-83
2023/08/03 06:59:21;;;;;;;2.07;1.00;;;16.00;99.90;;;;;;5036487;28;20261;-84
2023/08/03 07:01:48;;;;;;;1.67;1.20;;;16.00;99.90;;;;;;5018053;28;20201;-82
2023/08/03 07:04:14;;;;;;;3.20;1.30;;;16.00;99.90;;;;;;5036786;28;20220;-82
2023/08/03 07:06:40;;;;;;;3.90;1.13;;;16.10;99.90;;;;;;5018633;28;20194;-82
2023/08/03 07:09:05;;;;;;;1.43;1.00;;;16.00;99.90;;;;;;5018758;28;20182;-82
2023/08/03 07:11:31;;;;;;;1.07;0.97;;;15.90;99.90;;;;;;5036875;28;20201;-83
2023/08/03 07:13:56;;;;;;;2.10;1.10;;;15.80;99.90;;;;;;5037085;28;20315;-83
2023/08/03 07:16:23;;;;;;;1.30;0.93;;;15.70;99.90;;;;;;5035633;28;20642;-82
2023/08/03 07:18:48;;;;;;;1.63;1.00;;;15.70;99.90;;;;;;5036298;28;20178;-82
2023/08/03 07:21:14;;;;;;;2.20;1.00;;;15.70;99.90;;;;;;5036694;28;20693;-82
2023/08/03 07:23:40;;;;;;;2.33;1.00;;;15.70;99.90;;;;;;5018758;28;20221;-83
2023/08/03 07:26:14;;;;;;;2.40;1.10;;;15.70;99.90;;;;;;5036785;28;20180;-82
2023/08/03 07:28:40;;;;;;;2.20;1.17;;;15.70;99.90;;;;;;5036552;28;20182;-82
2023/08/03 07:31:05;;;;;;;3.33;1.20;;;15.80;99.90;;;;;;5036702;28;20240;-83
2023/08/03 07:33:31;;;;;;;2.70;1.10;;;15.80;99.90;;;;;;5018671;28;20209;-83
2023/08/03 07:35:56;;;;;;;3.20;1.30;;;15.90;99.90;;;;;;5018297;28;20178;-82
2023/08/03 07:38:22;;;;;;;4.53;1.13;;;15.90;99.90;;;;;;5036487;28;20291;-83
2023/08/03 07:40:47;;;;;;;4.23;1.27;;;15.80;99.90;;;;;;5036091;28;20175;-83
2023/08/03 07:43:13;;;;;;;3.37;1.00;;;15.80;99.90;;;;;;5018604;28;20202;-83
2023/08/03 07:45:39;;;;;;;2.07;1.13;;;15.80;99.90;;;;;;5036496;28;20179;-83
2023/08/03 07:48:04;;;;;;;2.37;1.10;;;15.80;99.90;;;;;;5036071;28;20590;-83
2023/08/03 07:50:30;;;;;;;3.90;1.40;;;15.90;99.90;;;;;;5018324;28;20212;-83
2023/08/03 07:52:56;;;;;;;3.37;1.17;;;16.00;99.90;;;;;;5036265;28;20254;-82
2023/08/03 07:55:21;;;;;;;3.17;1.50;;;15.90;99.90;;;;;;5018590;28;20660;-82
2023/08/03 07:57:47;;;;;;;4.50;1.50;;;15.90;99.90;;;;;;5036293;28;20304;-82
2023/08/03 08:00:13;;;;;;;2.30;1.43;;;15.90;99.90;;;;;;5017918;28;20193;-82
2023/08/03 08:02:38;;;;;;;2.43;1.10;;;15.80;99.90;;;;;;5017759;28;20248;-82
2023/08/03 08:05:04;;;;;;;2.87;1.10;;;15.80;99.90;;;;;;5018208;28;20731;-82
2023/08/03 08:07:30;;;;;;;2.90;1.20;;;15.70;99.90;;;;;;5017847;28;20191;-83
2023/08/03 08:09:55;;;;;;;3.43;1.37;;;15.70;99.90;;;;;;5017802;28;20166;-84
2023/08/03 08:12:21;;;;;;;2.33;1.20;;;15.80;99.90;;;;;;5035798;28;20170;-83
2023/08/03 08:14:46;;;;;;;3.70;1.10;;;15.80;99.90;;;;;;5035276;28;20657;-83
2023/08/03 08:17:12;;;;;;;3.03;1.20;;;15.60;99.90;;;;;;5035807;28;20194;-82
2023/08/03 08:19:38;;;;;;;3.40;1.40;;;15.60;99.90;;;;;;5035399;28;20170;-81
2023/08/03 08:22:06;;;;;;;3.67;1.40;;;15.60;99.90;;;;;;5036360;28;20225;-83
2023/08/03 08:24:31;;;;;;;4.47;1.20;;;15.70;99.90;;;;;;5017986;28;20170;-83
2023/08/03 08:26:57;;;;;;;2.73;1.20;;;15.70;99.90;;;;;;5018099;28;20336;-83
2023/08/03 08:29:24;;;;;;;2.07;1.30;;;15.70;99.90;;;;;;5018493;28;20174;-83
2023/08/03 08:31:49;;;;;;;4.00;1.30;;;15.70;99.90;;;;;;5017990;28;20228;-83
2023/08/03 08:34:15;;;;;;;3.73;1.27;;;15.80;99.90;;;;;;5036505;28;20178;-83
2023/08/03 08:36:41;;;;;;;2.30;1.30;;;15.80;99.90;;;;;;5017598;28;20216;-82
2023/08/03 08:39:06;;;;;;;2.03;1.13;;;15.80;99.90;;;;;;5036493;28;20636;-83
2023/08/03 08:41:37;;;;;;;3.50;1.07;;;15.80;99.90;;;;;;5036008;28;20225;-83
2023/08/03 08:44:03;;;;;;;2.53;1.20;;;15.80;99.90;;;;;;5018279;28;20209;-83
2023/08/03 08:46:28;;;;;;;2.33;1.17;;;15.70;99.90;;;;;;5036070;28;20186;-82
2023/08/03 08:48:54;;;;;;;2.30;1.20;;;15.80;99.90;;;;;;5035731;28;20193;-82
2023/08/03 08:51:20;;;;;;;1.40;1.00;;;15.80;99.90;;;;;;5016046;28;20167;-82
2023/08/03 08:53:46;;;;;;;1.80;1.00;;;15.90;99.90;;;;;;5015816;28;20174;-82
2023/08/03 08:56:13;;;;;;;1.07;0.90;;;15.90;99.90;;;;;;5034119;28;20228;-83
2023/08/03 08:58:38;;;;;;;1.53;0.90;;;15.90;99.90;;;;;;5016338;28;20209;-82
2023/08/03 09:01:05;;;;;;;1.83;1.00;;;15.90;99.90;;;;;;5034795;28;20170;-83
2023/08/03 09:03:51;;;;;;;2.20;1.10;;;15.90;99.90;;;;;;5016228;28;20677;-83
2023/08/03 09:06:19;;;;;;;1.53;0.93;;;15.90;99.90;;;;;;5033486;28;20212;-83
2023/08/03 09:08:49;;;;;;;3.00;1.33;;;16.00;99.90;;;;;;5033319;28;20163;-82
2023/08/03 09:11:15;;;;;;;2.43;1.17;;;15.90;99.90;;;;;;5033328;28;20194;-82
2023/08/03 09:13:41;;;;;;;2.70;1.10;;;15.90;99.90;;;;;;5015584;28;20174;-82
2023/08/03 09:16:22;;;;;;;3.17;1.00;;;16.00;99.90;;;;;;5033733;28;20167;-83
2023/08/03 09:18:47;;;;;;;1.43;1.00;;;15.90;99.90;;;;;;5034134;28;20257;-83
2023/08/03 09:21:15;;;;;;;1.97;1.10;;;15.80;99.90;;;;;;5034069;28;20237;-83
2023/08/03 09:23:41;;;;;;;1.73;0.97;;;15.80;99.90;;;;;;5034754;28;20691;-83
2023/08/03 09:26:07;;;;;;;1.87;1.10;;;15.70;99.90;;;;;;5037213;28;20171;-84
2023/08/03 09:28:41;;;;;;;2.97;1.00;;;15.70;99.90;;;;;;5038098;28;20167;-83
2023/08/03 09:31:07;;;;;;;2.63;1.10;;;15.70;99.90;;;;;;5037148;28;20170;-84
2023/08/03 09:33:36;;;;;;;1.90;1.10;;;15.70;99.90;;;;;;5019652;28;20187;-83
2023/08/03 09:36:05;;;;;;;3.23;1.30;;;15.80;99.90;;;;;;5019717;28;20714;-83
2023/08/03 09:38:31;;;;;;;3.50;1.20;;;15.80;99.90;;;;;;5019778;28;20193;-82
2023/08/03 09:40:57;;;;;;;3.03;1.20;;;15.90;99.90;;;;;;5019615;28;20170;-82
2023/08/03 09:43:24;;;;;;;1.97;1.10;;;16.00;99.90;;;;;;5019593;28;20234;-82
2023/08/03 09:45:55;;;;;;;3.20;1.40;;;16.00;99.90;;;;;;5019770;28;20225;-83
2023/08/03 09:48:22;;;;;;;3.23;1.20;;;16.10;99.90;;;;;;5019820;28;20289;-82
2023/08/03 09:50:53;;;;;;;3.67;1.10;;;16.20;99.90;;;;;;5037766;28;20166;-82
2023/08/03 09:53:21;;;;;;;2.00;1.20;;;16.40;99.90;;;;;;5019283;28;20174;-82
2023/08/03 09:55:53;;;;;;;2.63;1.10;;;16.50;99.90;;;;;;5037227;28;20171;-83
2023/08/03 09:58:23;;;;;;;2.03;1.20;;;16.50;99.90;;;;;;5037359;28;20198;-82
2023/08/03 10:00:51;;;;;;;2.83;1.10;;;16.50;99.90;;;;;;5019269;28;20645;-82
2023/08/03 10:03:18;;;;;;;2.47;1.30;;;16.40;99.90;;;;;;5019005;28;20567;-81
2023/08/03 10:05:53;;;;;;;3.60;1.23;;;16.20;99.90;;;;;;5036440;28;20702;-82
2023/08/03 10:08:27;;;;;;;2.57;1.10;;;16.20;99.90;;;;;;5036306;28;20227;-82
2023/08/03 10:10:59;;;;;;;2.30;1.03;;;16.30;99.90;;;;;;5018297;28;20174;-83
2023/08/03 10:13:28;;;;;;;2.37;1.10;;;16.30;99.90;;;;;;5036612;28;20184;-82
2023/08/03 10:15:54;;;;;;;3.00;1.20;;;16.30;99.90;;;;;;5037553;28;20178;-83
2023/08/03 10:18:20;;;;;;;3.30;1.23;;;16.30;99.90;;;;;;5038359;28;20281;-83
2023/08/03 10:20:47;;;;;;;2.30;1.30;;;16.30;99.90;;;;;;5018809;28;20703;-83
2023/08/03 10:23:18;;;;;;;2.43;1.40;;;16.30;99.90;;;;;;5019536;28;20675;-82
2023/08/03 10:25:56;;;;;;;3.70;1.57;;;16.30;99.90;;;;;;5018946;28;20178;-82
2023/08/03 10:28:23;;;;;;;4.30;1.30;;;16.30;99.90;;;;;;5019268;28;20213;-82
2023/08/03 10:31:11;;;;;;;2.07;1.10;;;16.30;99.90;;;;;;5018269;28;20171;-83
2023/08/03 10:33:46;;;;;;;1.60;1.20;;;16.30;99.90;;;;;;5018165;28;20629;-82
2023/08/03 10:36:27;;;;;;;2.50;1.30;;;16.40;99.90;;;;;;5018003;28;20178;-82
2023/08/03 10:39:07;;;;;;;1.73;1.17;;;16.40;99.90;;;;;;5037194;28;20192;-82
2023/08/03 10:41:38;;;;;;;3.20;1.33;;;16.50;99.90;;;;;;5017341;28;20182;-83
2023/08/03 10:44:07;;;;;;;1.93;1.20;;;16.50;99.90;;;;;;5017024;28;20225;-82
2023/08/03 10:46:37;;;;;;;4.40;1.30;;;16.50;99.90;;;;;;5035615;28;20197;-82
2023/08/03 10:49:22;;;;;;;2.70;1.17;;;16.50;99.90;;;;;;5017763;28;20185;-82
2023/08/03 10:51:50;;;;;;;2.13;1.30;;;16.60;99.90;;;;;;5035493;28;20524;-82
2023/08/03 10:54:16;;;;;;;2.47;1.27;;;16.60;99.90;;;;;;5035536;28;20213;-82
2023/08/03 10:57:01;;;;;;;1.30;1.10;;;16.60;99.90;;;;;;5034927;28;20206;-83
2023/08/03 10:59:27;;;;;;;1.87;1.00;;;16.70;99.90;;;;;;5017283;28;20175;-82
2023/08/03 11:01:52;;;;;;;2.03;1.20;;;16.70;99.90;;;;;;5035015;28;20192;-82
2023/08/03 11:04:23;;;;;;;1.30;1.00;;;16.80;99.90;;;;;;5017356;28;20585;-82
2023/08/03 11:06:49;;;;;;;3.63;1.10;;;17.00;99.90;;;;;;5035118;28;20198;-82
2023/08/03 11:09:15;;;;;;;1.43;1.10;;;17.20;99.90;;;;;;5017331;28;20250;-82
2023/08/03 11:11:44;;;;;;;1.93;1.30;;;17.20;99.90;;;;;;5034153;28;20736;-83
2023/08/03 11:14:10;;;;;;;2.73;1.20;;;17.20;99.90;;;;;;5017461;28;20256;-83
2023/08/03 11:16:35;;;;;;;2.03;1.07;;;17.10;99.90;;;;;;5035072;28;20619;-82
2023/08/03 11:19:01;;;;;;;2.63;1.10;;;17.10;99.90;;;;;;5016971;28;20720;-83
2023/08/03 11:21:27;;;;;;;2.30;1.10;;;17.00;99.90;;;;;;5034274;28;20174;-82
2023/08/03 11:23:52;;;;;;;2.77;1.00;;;17.00;99.90;;;;;;5016948;28;20206;-82
2023/08/03 11:26:18;;;;;;;2.60;1.10;;;17.10;99.90;;;;;;5034974;28;20170;-83
2023/08/03 11:28:44;;;;;;;2.13;1.07;;;17.30;99.90;;;;;;5037271;28;20221;-85
2023/08/03 11:31:16;;;;;;;2.00;1.00;;;17.40;99.90;;;;;;5036480;28;20619;-84
2023/08/03 11:33:51;;;;;;;1.30;0.90;;;17.40;99.90;;;;;;5036621;28;20174;-84
2023/08/03 11:36:17;;;;;;;3.07;1.10;;;17.40;99.90;;;;;;5018370;28;20205;-83
2023/08/03 11:38:44;;;;;;;1.80;0.80;;;17.30;99.90;;;;;;5019159;28;20190;-83
2023/08/03 11:41:11;;;;;;;1.97;1.23;;;17.20;99.90;;;;;;5018738;28;20174;-83
2023/08/03 11:43:36;;;;;;;3.67;1.10;;;17.10;99.90;;;;;;5018869;28;20252;-84
2023/08/03 11:46:02;;;;;;;1.50;0.80;;;17.10;99.90;;;;;;5036999;28;20209;-83
2023/08/03 11:48:30;;;;;;;1.07;0.97;;;17.10;99.90;;;;;;5035416;28;20190;-82
2023/08/03 11:50:55;;;;;;;2.70;1.13;;;17.20;99.90;;;;;;5018631;28;20206;-83
2023/08/03 11:53:25;;;;;;;1.77;1.07;;;17.20;99.90;;;;;;5036849;28;20189;-83
2023/08/03 11:55:51;;;;;;;2.63;1.00;;;17.30;99.90;;;;;;5036609;28;20182;-83
2023/08/03 11:58:16;;;;;;;2.37;0.87;;;17.30;99.90;;;;;;5018102;28;20742;-82
2023/08/03 12:00:43;;;;;;;2.07;1.10;;;17.30;99.90;;;;;;5035923;28;20185;-83
2023/08/03 12:03:09;;;;;;;1.47;1.00;;;17.40;99.90;;;;;;5035483;28;20209;-83
2023/08/03 12:05:52;;;;;;;1.10;0.90;;;17.40;99.90;;;;;;5018373;28;20243;-83
2023/08/03 12:08:20;;;;;;;1.33;0.80;;;17.40;99.90;;;;;;5036499;28;20198;-83
2023/08/03 12:11:18;;;;;;;1.37;0.90;;;17.40;99.90;;;;;;5035701;28;20236;-83
2023/08/03 12:13:44;;;;;;;0.90;0.80;;;17.40;99.90;;;;;;5007148;28;20193;-83
2023/08/03 12:16:10;;;;;;;0.80;0.80;;;17.30;99.90;;;;;;5036562;28;20205;-83
2023/08/03 12:18:36;;;;;;;1.37;1.10;;;17.40;99.90;;;;;;5017503;28;20236;-85
2023/08/03 12:21:02;;;;;;;4.63;1.00;;;17.80;99.90;;;;;;5017934;28;20170;-83
2023/08/03 12:23:28;;;;;;;0.80;0.80;;;18.30;99.90;;;;;;5017501;28;20202;-83
2023/08/03 12:25:54;;;;;;;1.30;0.80;;;18.20;99.90;;;;;;5036102;28;20181;-83
2023/08/03 12:28:20;;;;;;;0.80;0.80;;;18.30;99.90;;;;;;5035577;28;20233;-83
2023/08/03 12:30:46;;;;;;;1.07;0.70;;;18.30;99.90;;;;;;5035942;28;20732;-83
2023/08/03 12:33:12;;;;;;;1.33;0.90;;;18.30;99.90;;;;;;5018389;28;20209;-83
2023/08/03 12:35:38;;;;;;;0.70;0.70;;;18.30;99.90;;;;;;5035812;28;20166;-82
2023/08/03 12:38:04;;;;;;;1.93;0.80;;;18.00;99.90;;;;;;5017862;28;20307;-83
2023/08/03 12:40:29;;;;;;;1.40;0.90;;;17.80;99.90;;;;;;5017627;28;20177;-83
2023/08/03 12:42:55;;;;;;;0.90;0.80;;;17.90;99.90;;;;;;5018125;28;20198;-83
2023/08/03 12:45:24;;;;;;;2.33;0.97;;;18.00;99.90;;;;;;5035786;28;20175;-84
2023/08/03 12:47:52;;;;;;;1.30;1.10;;;18.00;99.90;;;;;;5017677;28;20194;-82